createdAt,value
2022-11-19T00:02:22.709Z,12.14
2022-11-19T00:04:55.789Z,12.37
2022-11-19T00:07:24.264Z,12.13
2022-11-19T00:09:54.360Z,12.29
2022-11-19T00:12:46.427Z,12.53
2022-11-19T00:15:16.130Z,12.66
2022-11-19T00:17:44.582Z,12.27
2022-11-19T00:20:14.295Z,12.33
2022-11-19T00:22:42.832Z,12.40
2022-11-19T00:25:18.525Z,12.72
2022-11-19T00:27:48.113Z,12.58
2022-11-19T00:30:40.846Z,12.38
2022-11-19T00:33:06.111Z,12.09
2022-11-19T00:35:34.561Z,11.87
2022-11-19T00:38:03.211Z,11.22
2022-11-19T00:40:33.749Z,12.01
2022-11-19T00:43:19.345Z,12.28
2022-11-19T00:45:49.048Z,11.80
2022-11-19T00:48:17.939Z,12.00
2022-11-19T00:50:46.645Z,12.23
2022-11-19T00:53:15.147Z,12.37
2022-11-19T00:55:45.050Z,12.73
2022-11-19T00:58:13.921Z,12.50
2022-11-19T01:00:42.356Z,12.95
2022-11-19T01:03:10.774Z,12.93
2022-11-19T01:05:39.431Z,12.43
2022-11-19T01:08:08.266Z,12.76
2022-11-19T01:10:37.424Z,12.91
2022-11-19T01:13:24.689Z,12.48
2022-11-19T01:15:59.082Z,12.74
2022-11-19T01:18:29.171Z,12.67
2022-11-19T01:20:57.920Z,12.80
2022-11-19T01:23:26.641Z,12.28
2022-11-19T01:26:00.536Z,12.02
2022-11-19T01:28:31.021Z,11.91
2022-11-19T01:30:59.636Z,12.13
2022-11-19T01:33:28.225Z,12.17
2022-11-19T01:36:00.363Z,12.22
2022-11-19T01:38:30.123Z,12.28
2022-11-19T01:40:59.758Z,12.25
2022-11-19T01:43:46.215Z,11.93
2022-11-19T01:46:17.273Z,11.72
2022-11-19T01:48:50.915Z,12.01
2022-11-19T01:51:24.688Z,11.47
2022-11-19T01:53:55.730Z,11.85
2022-11-19T01:56:25.217Z,12.22
2022-11-19T01:59:00.710Z,12.29
2022-11-19T02:01:31.003Z,12.04
2022-11-19T02:04:02.961Z,11.77
2022-11-19T02:06:32.514Z,12.34
2022-11-19T02:09:01.033Z,12.47
2022-11-19T02:12:08.885Z,12.37
2022-11-19T02:15:03.948Z,12.62
2022-11-19T02:17:53.971Z,12.74
2022-11-19T02:21:08.383Z,12.92
2022-11-19T02:24:33.504Z,12.75
2022-11-19T02:27:43.392Z,12.93
2022-11-19T02:30:16.531Z,12.84
2022-11-19T02:33:00.613Z,12.85
2022-11-19T02:35:56.754Z,12.70
2022-11-19T02:38:33.221Z,12.92
2022-11-19T02:41:30.008Z,13.29
2022-11-19T02:44:19.772Z,13.36
2022-11-19T02:46:53.492Z,12.79
2022-11-19T02:49:27.039Z,13.01
2022-11-19T02:51:56.599Z,12.90
2022-11-19T02:54:25.147Z,13.55
2022-11-19T02:56:58.808Z,13.12
2022-11-19T02:59:50.925Z,13.94
2022-11-19T03:02:39.442Z,13.49
2022-11-19T03:05:16.589Z,13.81
2022-11-19T03:07:45.522Z,14.27
2022-11-19T03:10:15.901Z,14.77
2022-11-19T03:12:52.086Z,14.64
2022-11-19T03:15:55.758Z,15.24
2022-11-19T03:18:33.826Z,14.84
2022-11-19T03:21:09.210Z,15.39
2022-11-19T03:23:43.467Z,15.02
2022-11-19T03:26:25.544Z,14.97
2022-11-19T03:28:56.674Z,15.41
2022-11-19T03:31:27.741Z,15.18
2022-11-19T03:34:03.031Z,14.84
2022-11-19T03:36:36.763Z,14.84
2022-11-19T03:39:11.208Z,15.05
2022-11-19T03:41:42.844Z,14.51
2022-11-19T03:44:18.065Z,14.89
2022-11-19T03:46:49.895Z,14.97
2022-11-19T03:49:24.096Z,15.06
2022-11-19T03:51:58.410Z,14.92
2022-11-19T03:54:27.066Z,14.94
2022-11-19T03:56:57.256Z,14.76
2022-11-19T03:59:29.674Z,14.72
2022-11-19T04:02:04.436Z,15.06
2022-11-19T04:04:37.581Z,14.74
2022-11-19T04:07:08.529Z,14.23
2022-11-19T04:09:37.535Z,14.16
2022-11-19T04:12:09.231Z,14.27
2022-11-19T04:14:37.740Z,14.25
2022-11-19T04:17:06.153Z,13.83
2022-11-19T04:19:38.127Z,14.47
2022-11-19T04:22:06.678Z,14.21
2022-11-19T04:24:36.221Z,14.12
2022-11-19T04:27:05.069Z,15.14
2022-11-19T04:29:33.489Z,14.51
2022-11-19T04:32:01.906Z,14.39
2022-11-19T04:34:31.160Z,14.78
2022-11-19T04:37:00.947Z,14.59
2022-11-19T04:39:29.353Z,14.14
2022-11-19T04:41:57.787Z,14.14
2022-11-19T04:44:26.229Z,14.12
2022-11-19T04:46:54.626Z,14.19
2022-11-19T04:49:24.331Z,14.31
2022-11-19T04:51:53.938Z,12.97
2022-11-19T04:54:23.755Z,13.45
2022-11-19T04:56:52.184Z,13.63
2022-11-19T04:59:20.847Z,14.06
2022-11-19T05:01:50.281Z,13.31
2022-11-19T05:04:20.073Z,13.38
2022-11-19T05:06:48.510Z,14.14
2022-11-19T05:09:17.267Z,14.20
2022-11-19T05:11:47.584Z,14.25
2022-11-19T05:14:15.994Z,14.13
2022-11-19T05:16:44.520Z,13.92
2022-11-19T05:19:12.938Z,13.81
2022-11-19T05:21:41.369Z,14.03
2022-11-19T05:24:10.455Z,14.33
2022-11-19T05:26:38.853Z,14.16
2022-11-19T05:29:08.658Z,14.05
2022-11-19T05:31:37.073Z,13.32
2022-11-19T05:34:05.559Z,14.15
2022-11-19T05:36:34.057Z,13.74
2022-11-19T05:39:02.640Z,14.04
2022-11-19T05:41:31.364Z,14.32
2022-11-19T05:43:59.772Z,11.67
2022-11-19T05:46:29.711Z,13.51
2022-11-19T05:48:58.129Z,13.88
2022-11-19T05:51:26.593Z,13.93
2022-11-19T05:53:55.011Z,13.75
2022-11-19T05:56:23.501Z,13.28
2022-11-19T05:58:51.886Z,14.13
2022-11-19T06:01:27.078Z,13.48
2022-11-19T06:03:57.321Z,12.86
2022-11-19T06:06:26.573Z,12.50
2022-11-19T06:08:55.214Z,12.37
2022-11-19T06:11:41.009Z,12.44
2022-11-19T06:14:10.518Z,12.53
2022-11-19T06:16:40.109Z,10.90
2022-11-19T06:19:10.039Z,10.79
2022-11-19T06:21:38.487Z,10.74
2022-11-19T06:24:07.708Z,12.30
2022-11-19T06:26:36.200Z,13.06
2022-11-19T06:29:06.117Z,12.89
2022-11-19T06:31:35.979Z,12.90
2022-11-19T06:34:04.673Z,11.38
2022-11-19T06:36:40.393Z,10.91
2022-11-19T06:39:10.763Z,10.46
2022-11-19T06:41:39.172Z,10.08
2022-11-19T06:44:07.609Z,10.13
2022-11-19T06:46:36.018Z,10.35
2022-11-19T06:49:05.870Z,10.20
2022-11-19T06:51:35.860Z,10.45
2022-11-19T06:54:04.538Z,9.75
2022-11-19T06:56:33.089Z,9.85
2022-11-19T06:59:01.516Z,10.04
2022-11-19T07:01:30.295Z,9.85
2022-11-19T07:03:58.910Z,9.80
2022-11-19T07:06:27.435Z,10.32
2022-11-19T07:08:57.305Z,10.65
2022-11-19T07:11:28.590Z,10.46
2022-11-19T07:13:59.653Z,9.97
2022-11-19T07:16:32.124Z,9.95
2022-11-19T07:19:02.075Z,9.95
2022-11-19T07:21:31.892Z,11.19
2022-11-19T07:24:05.505Z,11.35
2022-11-19T07:26:34.681Z,11.39
2022-11-19T07:29:05.122Z,11.48
2022-11-19T07:31:34.358Z,11.17
2022-11-19T07:34:03.088Z,11.85
2022-11-19T07:36:32.572Z,12.13
2022-11-19T07:39:02.625Z,12.31
2022-11-19T07:41:48.196Z,12.10
2022-11-19T07:44:16.604Z,12.29
2022-11-19T07:46:45.089Z,12.27
2022-11-19T07:49:14.064Z,13.29
2022-11-19T07:51:42.681Z,13.30
2022-11-19T07:54:14.208Z,12.60
2022-11-19T07:56:43.891Z,13.94
2022-11-19T07:59:13.000Z,14.03
2022-11-19T08:01:41.452Z,14.03
2022-11-19T08:04:10.090Z,13.82
2022-11-19T08:06:39.694Z,14.28
2022-11-19T08:09:15.590Z,14.57
2022-11-19T08:11:44.062Z,14.88
2022-11-19T08:14:22.493Z,14.23
2022-11-19T08:17:07.950Z,14.60
2022-11-19T08:19:37.661Z,14.36
2022-11-19T08:22:06.120Z,13.53
2022-11-19T08:24:35.938Z,14.95
2022-11-19T08:27:05.402Z,14.43
2022-11-19T08:29:34.118Z,15.53
2022-11-19T08:32:02.669Z,15.23
2022-11-19T08:34:32.931Z,15.06
2022-11-19T08:37:01.407Z,15.05
2022-11-19T08:39:30.772Z,15.33
2022-11-19T08:42:18.070Z,15.78
2022-11-19T08:44:46.571Z,15.58
2022-11-19T08:47:15.013Z,15.93
2022-11-19T08:49:43.436Z,15.00
2022-11-19T08:52:11.887Z,15.10
2022-11-19T08:54:40.451Z,14.68
2022-11-19T08:57:10.266Z,14.47
2022-11-19T08:59:38.752Z,15.10
2022-11-19T09:02:07.490Z,15.60
2022-11-19T09:04:35.973Z,15.00
2022-11-19T09:07:04.652Z,14.31
2022-11-19T09:09:33.322Z,15.07
2022-11-19T09:12:01.783Z,15.99
2022-11-19T09:14:31.776Z,14.74
2022-11-19T09:17:00.274Z,13.84
2022-11-19T09:19:28.849Z,14.55
2022-11-19T09:21:57.349Z,14.40
2022-11-19T09:24:25.952Z,15.22
2022-11-19T09:27:00.935Z,14.81
2022-11-19T09:29:31.957Z,15.06
2022-11-19T09:32:00.372Z,15.63
2022-11-19T09:34:29.089Z,15.30
2022-11-19T09:36:58.400Z,15.79
2022-11-19T09:39:27.248Z,16.82
2022-11-19T09:42:10.225Z,16.49
2022-11-19T09:45:11.929Z,17.24
2022-11-19T09:48:04.349Z,16.72
2022-11-19T09:50:38.831Z,16.95
2022-11-19T09:53:14.787Z,16.05
2022-11-19T09:55:46.283Z,15.68
2022-11-19T09:58:18.704Z,14.85
2022-11-19T10:00:48.550Z,17.00
2022-11-19T10:03:22.638Z,15.49
2022-11-19T10:06:10.530Z,15.14
2022-11-19T10:09:04.755Z,15.27
2022-11-19T10:11:49.154Z,14.50
2022-11-19T10:14:39.073Z,14.74
2022-11-19T10:17:23.427Z,15.43
2022-11-19T10:20:19.744Z,14.99
2022-11-19T10:22:57.328Z,15.19
2022-11-19T10:25:33.570Z,14.65
2022-11-19T10:28:10.562Z,14.83
2022-11-19T10:30:42.238Z,15.71
2022-11-19T10:33:20.937Z,15.39
2022-11-19T10:35:55.383Z,14.99
2022-11-19T10:38:28.048Z,15.92
2022-11-19T10:41:02.471Z,17.10
2022-11-19T10:43:38.034Z,16.23
2022-11-19T10:46:10.966Z,14.72
2022-11-19T10:48:44.881Z,14.43
2022-11-19T10:51:19.539Z,15.25
2022-11-19T10:53:48.730Z,14.96
2022-11-19T10:56:22.056Z,17.07
2022-11-19T10:58:55.445Z,16.68
2022-11-19T11:01:32.813Z,16.75
2022-11-19T11:04:10.906Z,16.02
2022-11-19T11:06:55.989Z,16.16
2022-11-19T11:09:32.769Z,17.03
2022-11-19T11:12:29.186Z,16.78
2022-11-19T11:15:09.750Z,17.12
2022-11-19T11:17:39.098Z,17.15
2022-11-19T11:20:27.053Z,14.75
2022-11-19T11:23:07.533Z,17.34
2022-11-19T11:25:38.890Z,16.18
2022-11-19T11:28:12.277Z,16.91
2022-11-19T11:30:55.842Z,16.95
2022-11-19T11:33:37.682Z,16.45
2022-11-19T11:36:13.037Z,17.03
2022-11-19T11:38:45.550Z,16.55
2022-11-19T11:44:08.937Z,17.29
2022-11-19T11:46:44.034Z,17.01
2022-11-19T11:49:26.483Z,17.42
2022-11-19T11:52:15.618Z,16.39
2022-11-19T11:55:01.382Z,16.45
2022-11-19T11:57:34.093Z,16.76
2022-11-19T12:00:27.037Z,16.16
2022-11-19T12:03:07.483Z,16.70
2022-11-19T12:05:50.529Z,16.32
2022-11-19T12:08:44.726Z,16.93
2022-11-19T12:11:22.696Z,16.39
2022-11-19T12:14:00.327Z,16.19
2022-11-19T12:16:48.402Z,16.20
2022-11-19T12:19:46.944Z,15.88
2022-11-19T12:22:25.083Z,16.27
2022-11-19T12:25:22.278Z,15.76
2022-11-19T12:28:15.309Z,15.72
2022-11-19T12:31:00.225Z,16.00
2022-11-19T12:33:57.317Z,17.02
2022-11-19T12:36:37.380Z,17.83
2022-11-19T12:39:20.870Z,18.12
2022-11-19T12:42:13.355Z,18.16
2022-11-19T12:44:51.962Z,16.85
2022-11-19T12:47:38.515Z,17.39
2022-11-19T12:50:24.304Z,17.65
2022-11-19T12:53:30.041Z,17.56
2022-11-19T12:56:14.568Z,16.94
2022-11-19T12:58:54.509Z,17.44
2022-11-19T13:01:27.528Z,17.54
2022-11-19T13:04:07.762Z,16.44
2022-11-19T13:06:47.009Z,17.45
2022-11-19T13:09:50.819Z,16.77
2022-11-19T13:12:24.850Z,16.98
2022-11-19T13:14:59.012Z,17.15
2022-11-19T13:17:32.057Z,16.26
2022-11-19T13:20:06.509Z,17.72
2022-11-19T13:22:38.687Z,18.28
2022-11-19T13:25:21.659Z,17.76
2022-11-19T13:27:52.886Z,17.28
2022-11-19T13:30:26.752Z,17.70
2022-11-19T13:33:06.642Z,18.43
2022-11-19T13:35:45.563Z,17.84
2022-11-19T13:38:20.685Z,18.18
2022-11-19T13:40:54.756Z,18.05
2022-11-19T13:43:41.595Z,18.59
2022-11-19T13:46:22.150Z,18.75
2022-11-19T13:48:58.177Z,17.81
2022-11-19T13:51:35.814Z,17.19
2022-11-19T13:54:07.721Z,17.93
2022-11-19T13:56:43.644Z,18.48
2022-11-19T13:59:32.934Z,17.46
2022-11-19T14:02:47.433Z,16.90
2022-11-19T14:05:45.655Z,16.47
2022-11-19T14:08:32.190Z,16.31
2022-11-19T14:11:17.333Z,15.71
2022-11-19T14:14:29.499Z,15.96
2022-11-19T14:17:23.882Z,16.00
2022-11-19T14:20:14.047Z,15.85
2022-11-19T14:23:01.809Z,15.61
2022-11-19T14:26:04.768Z,15.41
2022-11-19T14:28:45.451Z,15.40
2022-11-19T14:31:22.100Z,16.11
2022-11-19T14:34:04.067Z,15.14
2022-11-19T14:36:46.501Z,15.04
2022-11-19T14:39:25.086Z,14.96
2022-11-19T14:42:15.786Z,14.42
2022-11-19T14:44:45.077Z,14.97
2022-11-19T14:47:35.320Z,14.97
2022-11-19T14:50:07.965Z,14.76
2022-11-19T14:52:51.458Z,14.29
2022-11-19T14:55:24.269Z,13.78
2022-11-19T14:57:59.844Z,13.97
2022-11-19T15:00:32.887Z,14.55
2022-11-19T15:03:04.071Z,14.22
2022-11-19T15:05:41.115Z,14.35
2022-11-19T15:08:47.753Z,14.68
2022-11-19T15:11:17.354Z,14.78
2022-11-19T15:13:47.197Z,14.44
2022-11-19T15:16:18.599Z,14.47
2022-11-19T15:19:20.651Z,14.20
2022-11-19T15:22:26.682Z,14.10
2022-11-19T15:25:33.038Z,14.56
2022-11-19T15:28:13.030Z,14.56
2022-11-19T15:31:09.905Z,14.47
2022-11-19T15:34:15.086Z,14.23
2022-11-19T15:36:46.584Z,14.29
2022-11-19T15:39:23.301Z,14.25
2022-11-19T15:42:03.806Z,14.23
2022-11-19T15:44:40.720Z,14.79
2022-11-19T15:47:15.779Z,14.60
2022-11-19T15:49:45.911Z,14.40
2022-11-19T15:52:22.975Z,15.13
2022-11-19T15:54:51.415Z,14.29
2022-11-19T15:57:24.728Z,14.94
2022-11-19T15:59:59.840Z,14.66
2022-11-19T16:02:37.478Z,15.08
2022-11-19T16:05:06.955Z,14.77
2022-11-19T16:07:35.889Z,14.08
2022-11-19T16:10:26.040Z,14.77
2022-11-19T16:13:15.335Z,14.47
2022-11-19T16:16:09.041Z,15.11
2022-11-19T16:18:47.494Z,15.66
2022-11-19T16:21:20.499Z,15.31
2022-11-19T16:24:06.451Z,15.11
2022-11-19T16:26:38.261Z,14.76
2022-11-19T16:29:08.629Z,14.96
2022-11-19T16:31:37.187Z,14.82
2022-11-19T16:34:06.017Z,14.76
2022-11-19T16:36:34.985Z,14.62
2022-11-19T16:39:05.384Z,15.16
2022-11-19T16:41:52.846Z,15.35
2022-11-19T16:44:29.314Z,15.32
2022-11-19T16:46:57.993Z,14.80
2022-11-19T16:49:33.185Z,14.95
2022-11-19T16:52:03.047Z,15.03
2022-11-19T16:54:51.282Z,15.25
2022-11-19T16:57:23.309Z,15.22
2022-11-19T17:00:05.083Z,15.14
2022-11-19T17:02:47.246Z,15.03
2022-11-19T17:05:18.803Z,15.03
2022-11-19T17:07:50.381Z,14.55
2022-11-19T17:10:30.598Z,14.29
2022-11-19T17:13:02.807Z,14.41
2022-11-19T17:15:39.580Z,14.17
2022-11-19T17:18:19.977Z,14.80
2022-11-19T17:20:52.723Z,14.75
2022-11-19T17:23:23.451Z,14.27
2022-11-19T17:25:56.086Z,14.31
2022-11-19T17:28:36.035Z,14.90
2022-11-19T17:31:15.976Z,15.69
2022-11-19T17:33:55.554Z,15.79
2022-11-19T17:36:25.835Z,15.40
2022-11-19T17:38:54.862Z,14.98
2022-11-19T17:41:44.853Z,15.39
2022-11-19T17:44:36.948Z,15.62
2022-11-19T17:47:21.820Z,15.14
2022-11-19T17:49:51.301Z,15.13
2022-11-19T17:52:26.083Z,14.99
2022-11-19T17:54:56.929Z,14.83
2022-11-19T17:57:25.516Z,15.13
2022-11-19T17:59:54.010Z,15.16
2022-11-19T18:02:24.455Z,14.56
2022-11-19T18:04:53.847Z,14.75
2022-11-19T18:07:22.389Z,15.01
2022-11-19T18:09:50.943Z,14.86
2022-11-19T18:12:20.945Z,14.72
2022-11-19T18:14:49.581Z,14.39
2022-11-19T18:17:18.029Z,14.13
2022-11-19T18:19:48.122Z,14.60
2022-11-19T18:22:20.883Z,14.38
2022-11-19T18:24:50.443Z,13.90
2022-11-19T18:27:19.269Z,13.47
2022-11-19T18:29:47.835Z,14.01
2022-11-19T18:32:16.952Z,13.72
2022-11-19T18:34:47.594Z,13.57
2022-11-19T18:37:16.020Z,13.92
2022-11-19T18:39:44.534Z,14.40
2022-11-19T18:42:13.229Z,14.55
2022-11-19T18:44:43.453Z,14.00
2022-11-19T18:47:16.225Z,14.18
2022-11-19T18:49:44.619Z,14.48
2022-11-19T18:52:15.689Z,14.48
2022-11-19T18:54:44.272Z,14.59
2022-11-19T18:57:13.610Z,14.52
2022-11-19T18:59:42.463Z,14.35
2022-11-19T19:02:11.905Z,14.33
2022-11-19T19:04:40.441Z,14.19
2022-11-19T19:07:08.958Z,13.91
2022-11-19T19:09:38.971Z,13.69
2022-11-19T19:12:17.143Z,13.67
2022-11-19T19:14:47.198Z,13.66
2022-11-19T19:17:17.006Z,13.72
2022-11-19T19:19:45.480Z,13.57
2022-11-19T19:22:13.976Z,13.99
2022-11-19T19:24:44.229Z,14.19
2022-11-19T19:27:12.650Z,14.25
2022-11-19T19:29:41.098Z,14.02
2022-11-19T19:32:09.665Z,13.97
2022-11-19T19:34:38.719Z,13.78
2022-11-19T19:37:07.277Z,13.59
2022-11-19T19:39:35.695Z,13.48
2022-11-19T19:42:06.165Z,13.31
2022-11-19T19:44:34.692Z,13.59
2022-11-19T19:47:03.142Z,13.87
2022-11-19T19:49:34.730Z,13.49
2022-11-19T19:52:06.997Z,13.66
2022-11-19T19:54:35.462Z,13.57
2022-11-19T19:57:05.629Z,13.50
2022-11-19T19:59:34.625Z,13.03
2022-11-19T20:02:03.507Z,13.28
2022-11-19T20:04:33.926Z,13.40
2022-11-19T20:07:02.514Z,13.43
2022-11-19T20:09:34.085Z,13.03
2022-11-19T20:12:04.024Z,13.06
2022-11-19T20:14:32.740Z,13.39
2022-11-19T20:17:01.442Z,13.82
2022-11-19T20:19:30.394Z,13.92
2022-11-19T20:22:00.232Z,13.70
2022-11-19T20:24:28.750Z,13.42
2022-11-19T20:26:59.978Z,12.97
2022-11-19T20:29:30.187Z,13.12
2022-11-19T20:31:58.623Z,13.39
2022-11-19T20:34:27.098Z,13.19
2022-11-19T20:36:59.361Z,13.11
2022-11-19T20:39:27.954Z,13.19
2022-11-19T20:42:14.135Z,13.10
2022-11-19T20:44:46.000Z,13.29
2022-11-19T20:47:15.309Z,13.23
2022-11-19T20:49:43.711Z,13.19
2022-11-19T20:52:13.425Z,13.03
2022-11-19T20:54:42.490Z,12.62
2022-11-19T20:57:10.926Z,13.10
2022-11-19T20:59:39.352Z,13.26
2022-11-19T21:02:10.924Z,12.75
2022-11-19T21:04:39.424Z,12.71
2022-11-19T21:07:08.366Z,13.22
2022-11-19T21:09:37.897Z,13.30
2022-11-19T21:12:31.254Z,12.88
2022-11-19T21:15:00.054Z,12.99
2022-11-19T21:17:30.078Z,13.01
2022-11-19T21:19:58.479Z,13.14
2022-11-19T21:22:27.317Z,13.09
2022-11-19T21:24:55.758Z,12.85
2022-11-19T21:27:24.256Z,12.44
2022-11-19T21:29:52.672Z,12.32
2022-11-19T21:32:21.376Z,12.44
2022-11-19T21:34:51.185Z,12.14
2022-11-19T21:37:19.612Z,12.57
2022-11-19T21:39:48.049Z,12.10
2022-11-19T21:42:16.476Z,12.17
2022-11-19T21:44:45.023Z,12.38
2022-11-19T21:47:13.584Z,12.56
2022-11-19T21:49:44.798Z,12.33
2022-11-19T21:52:14.685Z,12.11
2022-11-19T21:54:43.188Z,11.88
2022-11-19T21:57:11.633Z,11.50
2022-11-19T21:59:40.070Z,11.62
2022-11-19T22:02:14.878Z,12.09
2022-11-19T22:04:43.427Z,11.83
2022-11-19T22:07:13.498Z,11.49
2022-11-19T22:09:42.117Z,11.94
2022-11-19T22:12:10.633Z,11.92
2022-11-19T22:14:39.049Z,11.91
2022-11-19T22:17:07.561Z,12.03
2022-11-19T22:19:36.018Z,11.99
2022-11-19T22:22:05.439Z,12.46
2022-11-19T22:24:35.316Z,12.29
2022-11-19T22:27:03.782Z,12.32
2022-11-19T22:29:32.225Z,12.03
2022-11-19T22:32:00.613Z,11.96
2022-11-19T22:34:29.099Z,12.03
2022-11-19T22:36:59.351Z,12.12
2022-11-19T22:39:29.954Z,12.14
2022-11-19T22:42:00.001Z,11.84
2022-11-19T22:44:28.455Z,11.77
2022-11-19T22:46:58.684Z,11.73
2022-11-19T22:49:27.704Z,11.42
2022-11-19T22:51:56.296Z,11.64
2022-11-19T22:54:24.734Z,11.84
2022-11-19T22:56:53.254Z,11.61
2022-11-19T22:59:23.399Z,11.33
2022-11-19T23:01:52.147Z,11.38
2022-11-19T23:04:20.532Z,11.38
2022-11-19T23:06:49.041Z,11.40
2022-11-19T23:09:17.699Z,11.37
2022-11-19T23:12:03.613Z,10.93
2022-11-19T23:14:35.351Z,11.66
2022-11-19T23:17:03.776Z,11.71
2022-11-19T23:19:32.166Z,11.83
2022-11-19T23:22:00.588Z,11.52
2022-11-19T23:24:29.054Z,11.81
2022-11-19T23:26:57.443Z,11.40
2022-11-19T23:29:26.238Z,11.79
2022-11-19T23:31:56.023Z,11.80
2022-11-19T23:34:24.465Z,11.58
2022-11-19T23:36:52.978Z,11.28
2022-11-19T23:39:21.704Z,11.74
2022-11-19T23:41:50.639Z,12.13
2022-11-19T23:44:19.234Z,12.27
2022-11-19T23:46:47.654Z,11.66
2022-11-19T23:49:17.491Z,11.87
2022-11-19T23:51:45.917Z,12.07
2022-11-19T23:54:15.168Z,12.44
2022-11-19T23:56:43.878Z,12.26
2022-11-19T23:59:12.525Z,10.80
